La Center, Washington
Current Conditions -  °F | °C
As of 2:53 AM on Friday 28 Nov 2014 (Local Time) from KSPB Reporting Station
Overcast Overcast  
Wind Chill: 53°   Ceiling: 1100
Heat Index: 53°   Visibility: 10mi
Dew Point: 51°   Wind: 7mph
Humidity: 93%   Direction: 130°SE
Pressure: 29.74"   Gusts: NA
Location:  45.86°N, 122.67°W
Report Text: KSPB 281053Z AUTO 13006KT 10SM OVC011 12/11 A2974 RMK AO2 SLP072 T01170106
Loading
Personal Weather Stations






























Interactive Weather Map New forecast layout! Learn more

10-Day Weather Forecast

Advertisements
Track Severe Weather on mobile